^^
Station Historical Data
Daily Summary for January 15, 2017 Units:  Both    English   Metric
« Previous Day
Next Day »
Daily Weekly Monthly Yearly Custom
  High: Low: Average:
Temperature: 90.0 °F /  32.2 °C 63.9 °F /  17.7 °C 76.7 °F /  24.8 °C
Dew Point: 61.5 °F /  16.4 °C 44.1 °F /  6.7 °C 53.4 °F /  11.9 °C
Humidity: 89% 23% 51%
Wind Speed: 18.0mph /  29km/h - 2.7mph /  4.3km/h
Wind Gust: 19.0mph /  30.6km/h - -
Wind- - SE
Pressure: 29.67 in /  1004.6 hPa 29.54 in /  1000.2 hPa -
Precipitation: 0.00 in /  0 mm    
Historical Graphs
 
 
Tabular Data for January 15, 2017
Time Temperature Dew Point Pressure Wind Wind Speed Wind Gust Humidity Rainfall Rate (Hourly) solar Conditions
00:01 66.0 °F /  18.9 °C 61.0 °F /  16.1 °C 29.67in /  1004.6hPa Calm   1.0mph /  1.6km/h 84% 0.00in /  0mm 0.0 W/m2
00:07 66.0 °F /  18.9 °C 61.0 °F /  16.1 °C 29.67in /  1004.6hPa Calm   1.0mph /  1.6km/h 84% 0.00in /  0mm 0.0 W/m2
00:13 66.0 °F /  18.9 °C 61.0 °F /  16.1 °C 29.67in /  1004.6hPa Calm     84% 0.00in /  0mm 0.0 W/m2
00:19 66.0 °F /  18.9 °C 61.0 °F /  16.1 °C 29.67in /  1004.6hPa Calm     84% 0.00in /  0mm 0.0 W/m2
00:26 66.0 °F /  18.9 °C 61.3 °F /  16.3 °C 29.67in /  1004.6hPa NNE 2.0mph /  3.2km/h 2.0mph /  3.2km/h 85% 0.00in /  0mm 0.0 W/m2
00:32 65.8 °F /  18.8 °C 61.2 °F /  16.2 °C 29.67in /  1004.6hPa Calm   1.0mph /  1.6km/h 85% 0.00in /  0mm 0.0 W/m2
00:38 65.8 °F /  18.8 °C 61.2 °F /  16.2 °C 29.66in /  1004.3hPa Calm   2.0mph /  3.2km/h 85% 0.00in /  0mm 0.0 W/m2
00:44 65.8 °F /  18.8 °C 61.2 °F /  16.2 °C 29.66in /  1004.3hPa Calm     85% 0.00in /  0mm 0.0 W/m2
00:50 65.8 °F /  18.8 °C 61.2 °F /  16.2 °C 29.66in /  1004.3hPa Calm   1.0mph /  1.6km/h 85% 0.00in /  0mm 0.0 W/m2
00:56 65.7 °F /  18.7 °C 61.0 °F /  16.1 °C 29.66in /  1004.3hPa Calm     85% 0.00in /  0mm 0.0 W/m2
01:02 65.7 °F /  18.7 °C 61.0 °F /  16.1 °C 29.66in /  1004.3hPa Calm     85% 0.00in /  0mm 0.0 W/m2
01:08 65.7 °F /  18.7 °C 61.0 °F /  16.1 °C 29.65in /  1003.9hPa Calm     85% 0.00in /  0mm 0.0 W/m2
01:15 65.7 °F /  18.7 °C 61.3 °F /  16.3 °C 29.65in /  1003.9hPa Calm     86% 0.00in /  0mm 0.0 W/m2
01:21 65.5 °F /  18.6 °C 60.8 °F /  16 °C 29.65in /  1003.9hPa Calm     85% 0.00in /  0mm 0.0 W/m2
01:27 65.5 °F /  18.6 °C 61.2 °F /  16.2 °C 29.64in /  1003.6hPa Calm     86% 0.00in /  0mm 0.0 W/m2
01:33 65.5 °F /  18.6 °C 60.8 °F /  16 °C 29.64in /  1003.6hPa Calm     85% 0.00in /  0mm 0.0 W/m2
01:39 65.5 °F /  18.6 °C 61.2 °F /  16.2 °C 29.64in /  1003.6hPa Calm     86% 0.00in /  0mm 0.0 W/m2
01:45 65.5 °F /  18.6 °C 61.2 °F /  16.2 °C 29.64in /  1003.6hPa Calm     86% 0.00in /  0mm 0.0 W/m2
01:51 65.5 °F /  18.6 °C 61.2 °F /  16.2 °C 29.64in /  1003.6hPa Calm     86% 0.00in /  0mm 0.0 W/m2
01:58 65.5 °F /  18.6 °C 61.2 °F /  16.2 °C 29.64in /  1003.6hPa ENE 0.9mph /  1.4km/h 4.0mph /  6.4km/h 86% 0.00in /  0mm 0.0 W/m2
02:04 65.5 °F /  18.6 °C 61.2 °F /  16.2 °C 29.64in /  1003.6hPa Calm   1.0mph /  1.6km/h 86% 0.00in /  0mm 0.0 W/m2
02:10 65.5 °F /  18.6 °C 61.5 °F /  16.4 °C 29.63in /  1003.3hPa ENE 2.0mph /  3.2km/h 2.0mph /  3.2km/h 87% 0.00in /  0mm 0.0 W/m2
02:16 65.5 °F /  18.6 °C 61.5 °F /  16.4 °C 29.63in /  1003.3hPa Calm   1.0mph /  1.6km/h 87% 0.00in /  0mm 0.0 W/m2
02:22 65.5 °F /  18.6 °C 61.5 °F /  16.4 °C 29.63in /  1003.3hPa Calm     87% 0.00in /  0mm 0.0 W/m2
02:28 65.3 °F /  18.5 °C 61.0 °F /  16.1 °C 29.62in /  1002.9hPa Calm   1.0mph /  1.6km/h 86% 0.00in /  0mm 0.0 W/m2
02:34 65.1 °F /  18.4 °C 61.2 °F /  16.2 °C 29.62in /  1002.9hPa Calm     87% 0.00in /  0mm 0.0 W/m2
02:40 65.1 °F /  18.4 °C 61.2 °F /  16.2 °C 29.62in /  1002.9hPa Calm     87% 0.00in /  0mm 0.0 W/m2
02:47 65.1 °F /  18.4 °C 60.8 °F /  16 °C 29.61in /  1002.6hPa Calm     86% 0.00in /  0mm 0.0 W/m2
02:53 65.1 °F /  18.4 °C 60.8 °F /  16 °C 29.61in /  1002.6hPa Calm   1.0mph /  1.6km/h 86% 0.00in /  0mm 0.0 W/m2
02:59 65.1 °F /  18.4 °C 60.8 °F /  16 °C 29.60in /  1002.3hPa Calm   1.0mph /  1.6km/h 86% 0.00in /  0mm 0.0 W/m2
03:05 65.1 °F /  18.4 °C 60.8 °F /  16 °C 29.60in /  1002.3hPa Calm   2.0mph /  3.2km/h 86% 0.00in /  0mm 0.0 W/m2
03:11 65.1 °F /  18.4 °C 61.2 °F /  16.2 °C 29.60in /  1002.3hPa WSW 0.9mph /  1.4km/h 1.0mph /  1.6km/h 87% 0.00in /  0mm 0.0 W/m2
03:17 65.3 °F /  18.5 °C 61.3 °F /  16.3 °C 29.60in /  1002.3hPa Calm   2.0mph /  3.2km/h 87% 0.00in /  0mm 0.0 W/m2
03:23 65.3 °F /  18.5 °C 61.0 °F /  16.1 °C 29.60in /  1002.3hPa WSW 2.0mph /  3.2km/h 3.0mph /  4.8km/h 86% 0.00in /  0mm 0.0 W/m2
03:29 65.3 °F /  18.5 °C 61.3 °F /  16.3 °C 29.60in /  1002.3hPa Calm   3.0mph /  4.8km/h 87% 0.00in /  0mm 0.0 W/m2
03:36 65.5 °F /  18.6 °C 61.2 °F /  16.2 °C 29.60in /  1002.3hPa Calm     86% 0.00in /  0mm 0.0 W/m2
03:42 65.5 °F /  18.6 °C 61.2 °F /  16.2 °C 29.60in /  1002.3hPa Calm     86% 0.00in /  0mm 0.0 W/m2
03:48 65.5 °F /  18.6 °C 61.2 °F /  16.2 °C 29.60in /  1002.3hPa Calm     86% 0.00in /  0mm 0.0 W/m2
03:54 65.5 °F /  18.6 °C 61.2 °F /  16.2 °C 29.60in /  1002.3hPa Calm     86% 0.00in /  0mm 0.0 W/m2
04:00 65.5 °F /  18.6 °C 61.2 °F /  16.2 °C 29.60in /  1002.3hPa Calm     86% 0.00in /  0mm 0.0 W/m2
04:06 65.5 °F /  18.6 °C 61.2 °F /  16.2 °C 29.60in /  1002.3hPa Calm     86% 0.00in /  0mm 0.0 W/m2
04:12 65.5 °F /  18.6 °C 61.2 °F /  16.2 °C 29.60in /  1002.3hPa Calm     86% 0.00in /  0mm 0.0 W/m2
04:18 65.3 °F /  18.5 °C 61.0 °F /  16.1 °C 29.60in /  1002.3hPa Calm     86% 0.00in /  0mm 0.0 W/m2
04:25 65.3 °F /  18.5 °C 61.0 °F /  16.1 °C 29.59in /  1001.9hPa Calm     86% 0.00in /  0mm 0.0 W/m2
04:31 65.1 °F /  18.4 °C 60.8 °F /  16 °C 29.59in /  1001.9hPa Calm     86% 0.00in /  0mm 0.0 W/m2
04:33 65.3 °F /  18.5 °C 61.0 °F /  16.1 °C 29.59in /  1001.9hPa Calm     86% 0.00in /  0mm 0.0 W/m2
04:39 65.3 °F /  18.5 °C 61.0 °F /  16.1 °C 29.59in /  1001.9hPa Calm     86% 0.00in /  0mm 0.0 W/m2
04:45 65.1 °F /  18.4 °C 60.8 °F /  16 °C 29.59in /  1001.9hPa Calm     86% 0.00in /  0mm 0.0 W/m2
04:51 65.1 °F /  18.4 °C 60.4 °F /  15.8 °C 29.59in /  1001.9hPa Calm     85% 0.00in /  0mm 0.0 W/m2
04:57 65.1 °F /  18.4 °C 60.4 °F /  15.8 °C 29.59in /  1001.9hPa Calm     85% 0.00in /  0mm 0.0 W/m2
05:03 65.1 °F /  18.4 °C 60.4 °F /  15.8 °C 29.59in /  1001.9hPa Calm     85% 0.00in /  0mm 0.0 W/m2
05:10 65.1 °F /  18.4 °C 60.4 °F /  15.8 °C 29.59in /  1001.9hPa Calm     85% 0.00in /  0mm 0.0 W/m2
05:16 65.1 °F /  18.4 °C 60.4 °F /  15.8 °C 29.59in /  1001.9hPa Calm     85% 0.00in /  0mm 0.0 W/m2
05:22 64.9 °F /  18.3 °C 60.6 °F /  15.9 °C 29.59in /  1001.9hPa Calm     86% 0.00in /  0mm 0.0 W/m2
05:28 64.9 °F /  18.3 °C 60.6 °F /  15.9 °C 29.59in /  1001.9hPa Calm     86% 0.00in /  0mm 0.0 W/m2
05:34 64.9 °F /  18.3 °C 61.0 °F /  16.1 °C 29.59in /  1001.9hPa Calm     87% 0.00in /  0mm 0.0 W/m2
05:40 64.8 °F /  18.2 °C 60.8 °F /  16 °C 29.59in /  1001.9hPa Calm     87% 0.00in /  0mm 0.0 W/m2
05:47 64.8 °F /  18.2 °C 61.2 °F /  16.2 °C 29.59in /  1001.9hPa Calm     88% 0.00in /  0mm 0.0 W/m2
05:53 64.8 °F /  18.2 °C 61.2 °F /  16.2 °C 29.59in /  1001.9hPa Calm     88% 0.00in /  0mm 0.0 W/m2
05:59 64.6 °F /  18.1 °C 61.0 °F /  16.1 °C 29.59in /  1001.9hPa Calm     88% 0.00in /  0mm 0.0 W/m2
06:05 64.6 °F /  18.1 °C 61.0 °F /  16.1 °C 29.59in /  1001.9hPa Calm     88% 0.00in /  0mm 0.0 W/m2
06:11 64.4 °F /  18 °C 60.8 °F /  16 °C 29.59in /  1001.9hPa Calm     88% 0.00in /  0mm 0.0 W/m2
06:17 64.2 °F /  17.9 °C 60.6 °F /  15.9 °C 29.59in /  1001.9hPa Calm     88% 0.00in /  0mm 0.0 W/m2
06:23 64.2 °F /  17.9 °C 60.6 °F /  15.9 °C 29.59in /  1001.9hPa Calm     88% 0.00in /  0mm 5.0 W/m2
06:29 64.0 °F /  17.8 °C 60.4 °F /  15.8 °C 29.59in /  1001.9hPa Calm     88% 0.00in /  0mm 11.0 W/m2
06:36 64.0 °F /  17.8 °C 60.8 °F /  16 °C 29.59in /  1001.9hPa Calm     89% 0.00in /  0mm 18.0 W/m2
06:42 63.9 °F /  17.7 °C 60.6 °F /  15.9 °C 29.59in /  1001.9hPa Calm     89% 0.00in /  0mm 26.0 W/m2
06:48 63.9 °F /  17.7 °C 60.6 °F /  15.9 °C 29.60in /  1002.3hPa Calm     89% 0.00in /  0mm 33.0 W/m2
06:54 64.0 °F /  17.8 °C 60.8 °F /  16 °C 29.60in /  1002.3hPa Calm   2.0mph /  3.2km/h 89% 0.00in /  0mm 40.0 W/m2
07:00 64.0 °F /  17.8 °C 60.8 °F /  16 °C 29.60in /  1002.3hPa Calm   2.0mph /  3.2km/h 89% 0.00in /  0mm 49.0 W/m2
07:06 64.2 °F /  17.9 °C 61.0 °F /  16.1 °C 29.61in /  1002.6hPa Calm   2.0mph /  3.2km/h 89% 0.00in /  0mm 54.0 W/m2
07:12 64.6 °F /  18.1 °C 61.0 °F /  16.1 °C 29.61in /  1002.6hPa Calm   4.0mph /  6.4km/h 88% 0.00in /  0mm 58.0 W/m2
07:18 64.8 °F /  18.2 °C 60.8 °F /  16 °C 29.61in /  1002.6hPa Calm   3.0mph /  4.8km/h 87% 0.00in /  0mm 60.0 W/m2
07:25 65.1 °F /  18.4 °C 60.8 °F /  16 °C 29.61in /  1002.6hPa Calm   2.0mph /  3.2km/h 86% 0.00in /  0mm 58.0 W/m2
07:31 65.7 °F /  18.7 °C 61.0 °F /  16.1 °C 29.61in /  1002.6hPa Calm   2.0mph /  3.2km/h 85% 0.00in /  0mm 56.0 W/m2
07:37 66.0 °F /  18.9 °C 61.0 °F /  16.1 °C 29.62in /  1002.9hPa Calm     84% 0.00in /  0mm 63.0 W/m2
07:43 66.6 °F /  19.2 °C 60.6 °F /  15.9 °C 29.62in /  1002.9hPa Calm   1.0mph /  1.6km/h 81% 0.00in /  0mm 181.0 W/m2
07:49 67.3 °F /  19.6 °C 60.3 °F /  15.7 °C 29.62in /  1002.9hPa SSE 4.0mph /  6.4km/h 6.0mph /  9.7km/h 78% 0.00in /  0mm 334.0 W/m2
07:55 68.5 °F /  20.3 °C 59.2 °F /  15.1 °C 29.62in /  1002.9hPa SE 0.9mph /  1.4km/h 8.0mph /  12.9km/h 72% 0.00in /  0mm 371.0 W/m2
08:01 70.2 °F /  21.2 °C 59.2 °F /  15.1 °C 29.62in /  1002.9hPa SE 4.0mph /  6.4km/h 6.0mph /  9.7km/h 68% 0.00in /  0mm 397.0 W/m2
08:07 71.4 °F /  21.9 °C 59.0 °F /  15 °C 29.62in /  1002.9hPa SE 0.9mph /  1.4km/h 6.0mph /  9.7km/h 65% 0.00in /  0mm 418.0 W/m2
08:13 72.9 °F /  22.7 °C 59.0 °F /  15 °C 29.62in /  1002.9hPa SSE 2.9mph /  4.7km/h 8.0mph /  12.9km/h 62% 0.00in /  0mm 450.0 W/m2
08:20 73.8 °F /  23.2 °C 59.0 °F /  15 °C 29.62in /  1002.9hPa SE 2.9mph /  4.7km/h 7.0mph /  11.3km/h 60% 0.00in /  0mm 492.0 W/m2
08:26 74.5 °F /  23.6 °C 59.2 °F /  15.1 °C 29.62in /  1002.9hPa SSW 2.0mph /  3.2km/h 5.0mph /  8km/h 59% 0.00in /  0mm 436.0 W/m2
08:32 74.7 °F /  23.7 °C 58.8 °F /  14.9 °C 29.62in /  1002.9hPa SW 2.9mph /  4.7km/h 6.0mph /  9.7km/h 58% 0.00in /  0mm 541.0 W/m2
08:38 75.0 °F /  23.9 °C 58.8 °F /  14.9 °C 29.62in /  1002.9hPa Calm   4.0mph /  6.4km/h 57% 0.00in /  0mm 526.0 W/m2
08:44 75.7 °F /  24.3 °C 59.0 °F /  15 °C 29.62in /  1002.9hPa SSW 2.0mph /  3.2km/h 4.0mph /  6.4km/h 56% 0.00in /  0mm 534.0 W/m2
08:50 75.7 °F /  24.3 °C 59.0 °F /  15 °C 29.62in /  1002.9hPa SW 2.0mph /  3.2km/h 3.0mph /  4.8km/h 56% 0.00in /  0mm 548.0 W/m2
08:56 75.9 °F /  24.4 °C 58.1 °F /  14.5 °C 29.62in /  1002.9hPa SE 0.9mph /  1.4km/h 4.0mph /  6.4km/h 54% 0.00in /  0mm 573.0 W/m2
09:02 77.0 °F /  25 °C 58.6 °F /  14.8 °C 29.62in /  1002.9hPa SW 4.9mph /  7.9km/h 6.0mph /  9.7km/h 53% 0.00in /  0mm 603.0 W/m2
09:08 77.2 °F /  25.1 °C 58.3 °F /  14.6 °C 29.62in /  1002.9hPa Calm   2.0mph /  3.2km/h 52% 0.00in /  0mm 624.0 W/m2
09:15 77.5 °F /  25.3 °C 55.0 °F /  12.8 °C 29.62in /  1002.9hPa East 2.0mph /  3.2km/h 8.0mph /  12.9km/h 46% 0.00in /  0mm 647.0 W/m2
09:21 78.3 °F /  25.7 °C 55.8 °F /  13.2 °C 29.63in /  1003.3hPa ENE 0.9mph /  1.4km/h 3.0mph /  4.8km/h 46% 0.00in /  0mm 705.0 W/m2
09:27 78.6 °F /  25.9 °C 55.6 °F /  13.1 °C 29.63in /  1003.3hPa ENE 2.0mph /  3.2km/h 6.0mph /  9.7km/h 45% 0.00in /  0mm 742.0 W/m2
09:33 79.2 °F /  26.2 °C 55.4 °F /  13 °C 29.63in /  1003.3hPa ENE 2.9mph /  4.7km/h 7.0mph /  11.3km/h 44% 0.00in /  0mm 803.0 W/m2
09:39 79.5 °F /  26.4 °C 55.0 °F /  12.8 °C 29.63in /  1003.3hPa ESE 4.0mph /  6.4km/h 7.0mph /  11.3km/h 43% 0.00in /  0mm 844.0 W/m2
09:45 79.9 °F /  26.6 °C 54.7 °F /  12.6 °C 29.63in /  1003.3hPa ESE 8.9mph /  14.3km/h 10.0mph /  16.1km/h 42% 0.00in /  0mm 178.0 W/m2
09:51 79.7 °F /  26.5 °C 54.5 °F /  12.5 °C 29.63in /  1003.3hPa SE 10.1mph /  16.3km/h 19.0mph /  30.6km/h 42% 0.00in /  0mm 868.0 W/m2
09:58 79.5 °F /  26.4 °C 54.5 °F /  12.5 °C 29.63in /  1003.3hPa SE 6.9mph /  11.1km/h 9.0mph /  14.5km/h 42% 0.00in /  0mm 141.0 W/m2
10:04 79.2 °F /  26.2 °C 54.7 °F /  12.6 °C 29.63in /  1003.3hPa East 8.9mph /  14.3km/h 12.0mph /  19.3km/h 43% 0.00in /  0mm 967.0 W/m2
10:10 79.5 °F /  26.4 °C 54.5 °F /  12.5 °C 29.63in /  1003.3hPa SSE 6.9mph /  11.1km/h 8.0mph /  12.9km/h 42% 0.00in /  0mm 902.0 W/m2
10:16 80.2 °F /  26.8 °C 53.8 °F /  12.1 °C 29.64in /  1003.6hPa East 4.0mph /  6.4km/h 10.0mph /  16.1km/h 40% 0.00in /  0mm 935.0 W/m2
10:22 80.6 °F /  27 °C 55.4 °F /  13 °C 29.64in /  1003.6hPa SE 4.9mph /  7.9km/h 11.0mph /  17.7km/h 42% 0.00in /  0mm 933.0 W/m2
10:28 80.1 °F /  26.7 °C 54.3 °F /  12.4 °C 29.64in /  1003.6hPa SSE 11.0mph /  17.7km/h 13.0mph /  20.9km/h 41% 0.00in /  0mm 172.0 W/m2
10:34 79.9 °F /  26.6 °C 54.7 °F /  12.6 °C 29.64in /  1003.6hPa ESE 8.1mph /  13km/h 14.0mph /  22.5km/h 42% 0.00in /  0mm 142.0 W/m2
10:40 80.2 °F /  26.8 °C 55.0 °F /  12.8 °C 29.64in /  1003.6hPa ESE 11.0mph /  17.7km/h 11.0mph /  17.7km/h 42% 0.00in /  0mm 993.0 W/m2
10:47 80.8 °F /  27.1 °C 54.1 °F /  12.3 °C 29.64in /  1003.6hPa ESE 8.9mph /  14.3km/h 10.0mph /  16.1km/h 40% 0.00in /  0mm 1009.0 W/m2
10:53 81.1 °F /  27.3 °C 54.5 °F /  12.5 °C 29.64in /  1003.6hPa SE 4.9mph /  7.9km/h 8.0mph /  12.9km/h 40% 0.00in /  0mm 981.0 W/m2
10:59 81.3 °F /  27.4 °C 54.0 °F /  12.2 °C 29.65in /  1003.9hPa SE 4.0mph /  6.4km/h 10.0mph /  16.1km/h 39% 0.00in /  0mm 195.0 W/m2
11:05 81.1 °F /  27.3 °C 53.8 °F /  12.1 °C 29.64in /  1003.6hPa ESE 2.9mph /  4.7km/h 6.0mph /  9.7km/h 39% 0.00in /  0mm 251.0 W/m2
11:13 81.0 °F /  27.2 °C 53.6 °F /  12 °C 29.64in /  1003.6hPa ESE 2.9mph /  4.7km/h 10.0mph /  16.1km/h 39% 0.00in /  0mm 299.0 W/m2
11:19 81.1 °F /  27.3 °C 53.8 °F /  12.1 °C 29.64in /  1003.6hPa NE 4.0mph /  6.4km/h 8.0mph /  12.9km/h 39% 0.00in /  0mm 163.0 W/m2
11:25 81.1 °F /  27.3 °C 53.1 °F /  11.7 °C 29.64in /  1003.6hPa South 8.1mph /  13km/h 8.1mph /  13km/h 38% 0.00in /  0mm 1127.0 W/m2
11:32 81.5 °F /  27.5 °C 50.4 °F /  10.2 °C 29.64in /  1003.6hPa ENE 2.9mph /  4.7km/h 9.0mph /  14.5km/h 34% 0.00in /  0mm 188.0 W/m2
11:38 81.9 °F /  27.7 °C 50.7 °F /  10.4 °C 29.64in /  1003.6hPa SSE 6.0mph /  9.7km/h 9.0mph /  14.5km/h 34% 0.00in /  0mm 1144.0 W/m2
11:44 82.0 °F /  27.8 °C 49.3 °F /  9.6 °C 29.64in /  1003.6hPa ESE 6.0mph /  9.7km/h 17.0mph /  27.4km/h 32% 0.00in /  0mm 186.0 W/m2
11:50 81.7 °F /  27.6 °C 50.5 °F /  10.3 °C 29.64in /  1003.6hPa SE 8.1mph /  13km/h 15.0mph /  24.1km/h 34% 0.00in /  0mm 1164.0 W/m2
11:56 82.4 °F /  28 °C 50.4 °F /  10.2 °C 29.64in /  1003.6hPa SE 2.0mph /  3.2km/h 13.0mph /  20.9km/h 33% 0.00in /  0mm 1202.0 W/m2
12:02 82.9 °F /  28.3 °C 49.3 °F /  9.6 °C 29.64in /  1003.6hPa SSW 2.0mph /  3.2km/h 9.0mph /  14.5km/h 31% 0.00in /  0mm 1280.0 W/m2
12:08 82.8 °F /  28.2 °C 49.1 °F /  9.5 °C 29.64in /  1003.6hPa ESE 4.9mph /  7.9km/h 10.0mph /  16.1km/h 31% 0.00in /  0mm 346.0 W/m2
12:14 82.8 °F /  28.2 °C 49.8 °F /  9.9 °C 29.64in /  1003.6hPa ESE 8.9mph /  14.3km/h 14.0mph /  22.5km/h 32% 0.00in /  0mm 1172.0 W/m2
12:21 83.8 °F /  28.8 °C 50.9 °F /  10.5 °C 29.64in /  1003.6hPa SSE 6.0mph /  9.7km/h 11.0mph /  17.7km/h 32% 0.00in /  0mm 1171.0 W/m2
12:27 84.6 °F /  29.2 °C 49.6 °F /  9.8 °C 29.64in /  1003.6hPa SE 12.1mph /  19.5km/h 16.0mph /  25.7km/h 30% 0.00in /  0mm 1123.0 W/m2
12:33 84.9 °F /  29.4 °C 50.0 °F /  10 °C 29.64in /  1003.6hPa ESE 2.9mph /  4.7km/h 8.0mph /  12.9km/h 30% 0.00in /  0mm 1123.0 W/m2
12:39 85.5 °F /  29.7 °C 47.7 °F /  8.7 °C 29.64in /  1003.6hPa ESE 0.9mph /  1.4km/h 12.0mph /  19.3km/h 27% 0.00in /  0mm 1204.0 W/m2
12:45 85.8 °F /  29.9 °C 48.9 °F /  9.4 °C 29.64in /  1003.6hPa ESE 6.0mph /  9.7km/h 9.0mph /  14.5km/h 28% 0.00in /  0mm 1209.0 W/m2
12:51 85.5 °F /  29.7 °C 48.6 °F /  9.2 °C 29.63in /  1003.3hPa SE 6.0mph /  9.7km/h 11.0mph /  17.7km/h 28% 0.00in /  0mm 1246.0 W/m2
12:57 85.1 °F /  29.5 °C 51.1 °F /  10.6 °C 29.63in /  1003.3hPa South 4.0mph /  6.4km/h 9.0mph /  14.5km/h 31% 0.00in /  0mm 265.0 W/m2
13:04 84.0 °F /  28.9 °C 51.8 °F /  11 °C 29.63in /  1003.3hPa SE 6.0mph /  9.7km/h 11.0mph /  17.7km/h 33% 0.00in /  0mm 1176.0 W/m2
13:10 84.4 °F /  29.1 °C 51.3 °F /  10.7 °C 29.63in /  1003.3hPa SE 11.0mph /  17.7km/h 12.0mph /  19.3km/h 32% 0.00in /  0mm 1134.0 W/m2
13:16 84.9 °F /  29.4 °C 50.0 °F /  10 °C 29.63in /  1003.3hPa SE 4.9mph /  7.9km/h 10.0mph /  16.1km/h 30% 0.00in /  0mm 1206.0 W/m2
13:22 85.3 °F /  29.6 °C 50.4 °F /  10.2 °C 29.62in /  1002.9hPa ESE 8.1mph /  13km/h 8.1mph /  13km/h 30% 0.00in /  0mm 288.0 W/m2
13:28 85.3 °F /  29.6 °C 49.5 °F /  9.7 °C 29.62in /  1002.9hPa ENE 4.0mph /  6.4km/h 9.0mph /  14.5km/h 29% 0.00in /  0mm 227.0 W/m2
13:34 85.1 °F /  29.5 °C 50.2 °F /  10.1 °C 29.62in /  1002.9hPa SSE 6.9mph /  11.1km/h 10.0mph /  16.1km/h 30% 0.00in /  0mm 325.0 W/m2
13:40 85.1 °F /  29.5 °C 50.2 °F /  10.1 °C 29.62in /  1002.9hPa SSE 8.1mph /  13km/h 13.0mph /  20.9km/h 30% 0.00in /  0mm 283.0 W/m2
13:46 85.5 °F /  29.7 °C 49.6 °F /  9.8 °C 29.62in /  1002.9hPa SE 4.9mph /  7.9km/h 9.0mph /  14.5km/h 29% 0.00in /  0mm 1229.0 W/m2
13:53 86.2 °F /  30.1 °C 51.1 °F /  10.6 °C 29.62in /  1002.9hPa South 4.0mph /  6.4km/h 8.0mph /  12.9km/h 30% 0.00in /  0mm 1169.0 W/m2
13:59 87.1 °F /  30.6 °C 50.0 °F /  10 °C 29.61in /  1002.6hPa SE 6.0mph /  9.7km/h 11.0mph /  17.7km/h 28% 0.00in /  0mm 659.0 W/m2
14:05 87.3 °F /  30.7 °C 52.0 °F /  11.1 °C 29.61in /  1002.6hPa SSE 8.9mph /  14.3km/h 12.0mph /  19.3km/h 30% 0.00in /  0mm 1197.0 W/m2
14:11 87.4 °F /  30.8 °C 50.4 °F /  10.2 °C 29.61in /  1002.6hPa SE 2.9mph /  4.7km/h 7.0mph /  11.3km/h 28% 0.00in /  0mm 244.0 W/m2
14:17 87.8 °F /  31 °C 51.6 °F /  10.9 °C 29.61in /  1002.6hPa ENE 2.0mph /  3.2km/h 10.0mph /  16.1km/h 29% 0.00in /  0mm 1081.0 W/m2
14:23 88.3 °F /  31.3 °C 51.1 °F /  10.6 °C 29.61in /  1002.6hPa SSE 8.9mph /  14.3km/h 13.0mph /  20.9km/h 28% 0.00in /  0mm 1121.0 W/m2
14:31 87.3 °F /  30.7 °C 51.1 °F /  10.6 °C 29.60in /  1002.3hPa ESE 18.0mph /  29km/h 18.0mph /  29km/h 29% 0.00in /  0mm 290.0 W/m2
14:37 87.4 °F /  30.8 °C 49.3 °F /  9.6 °C 29.60in /  1002.3hPa ESE 6.9mph /  11.1km/h 9.0mph /  14.5km/h 27% 0.00in /  0mm 1078.0 W/m2
14:43 88.0 °F /  31.1 °C 49.8 °F /  9.9 °C 29.59in /  1001.9hPa Calm   6.0mph /  9.7km/h 27% 0.00in /  0mm 1055.0 W/m2
14:49 88.9 °F /  31.6 °C 50.5 °F /  10.3 °C 29.59in /  1001.9hPa ESE 2.9mph /  4.7km/h 6.0mph /  9.7km/h 27% 0.00in /  0mm 1067.0 W/m2
14:55 89.2 °F /  31.8 °C 50.9 °F /  10.5 °C 29.59in /  1001.9hPa SE 2.9mph /  4.7km/h 12.0mph /  19.3km/h 27% 0.00in /  0mm 1178.0 W/m2
15:01 89.1 °F /  31.7 °C 50.7 °F /  10.4 °C 29.59in /  1001.9hPa SSE 8.9mph /  14.3km/h 11.0mph /  17.7km/h 27% 0.00in /  0mm 1178.0 W/m2
15:07 89.1 °F /  31.7 °C 50.7 °F /  10.4 °C 29.59in /  1001.9hPa SSE 2.9mph /  4.7km/h 9.0mph /  14.5km/h 27% 0.00in /  0mm 218.0 W/m2
15:13 87.8 °F /  31 °C 49.6 °F /  9.8 °C 29.59in /  1001.9hPa SE 4.0mph /  6.4km/h 9.0mph /  14.5km/h 27% 0.00in /  0mm 258.0 W/m2
15:19 86.9 °F /  30.5 °C 49.8 °F /  9.9 °C 29.59in /  1001.9hPa SE 0.9mph /  1.4km/h 6.0mph /  9.7km/h 28% 0.00in /  0mm 313.0 W/m2
15:25 86.7 °F /  30.4 °C 48.7 °F /  9.3 °C 29.59in /  1001.9hPa ESE 6.0mph /  9.7km/h 14.0mph /  22.5km/h 27% 0.00in /  0mm 181.0 W/m2
15:31 86.4 °F /  30.2 °C 48.4 °F /  9.1 °C 29.58in /  1001.6hPa Calm   6.0mph /  9.7km/h 27% 0.00in /  0mm 1002.0 W/m2
15:38 86.9 °F /  30.5 °C 49.8 °F /  9.9 °C 29.58in /  1001.6hPa SSW 4.9mph /  7.9km/h 9.0mph /  14.5km/h 28% 0.00in /  0mm 923.0 W/m2
15:43 88.0 °F /  31.1 °C 49.8 °F /  9.9 °C 29.57in /  1001.2hPa SE 4.9mph /  7.9km/h 9.0mph /  14.5km/h 27% 0.00in /  0mm 954.0 W/m2
15:49 88.2 °F /  31.2 °C 48.9 °F /  9.4 °C 29.57in /  1001.2hPa East 6.0mph /  9.7km/h 8.0mph /  12.9km/h 26% 0.00in /  0mm 188.0 W/m2
15:56 87.6 °F /  30.9 °C 48.6 °F /  9.2 °C 29.57in /  1001.2hPa ENE 2.0mph /  3.2km/h 10.0mph /  16.1km/h 26% 0.00in /  0mm 192.0 W/m2
16:01 87.6 °F /  30.9 °C 48.6 °F /  9.2 °C 29.57in /  1001.2hPa SW 0.9mph /  1.4km/h 8.0mph /  12.9km/h 26% 0.00in /  0mm 889.0 W/m2
16:07 88.7 °F /  31.5 °C 48.4 °F /  9.1 °C 29.56in /  1000.9hPa South 2.0mph /  3.2km/h 5.0mph /  8km/h 25% 0.00in /  0mm 860.0 W/m2
16:14 89.4 °F /  31.9 °C 47.8 °F /  8.8 °C 29.56in /  1000.9hPa SSE 2.9mph /  4.7km/h 6.0mph /  9.7km/h 24% 0.00in /  0mm 803.0 W/m2
16:20 89.4 °F /  31.9 °C 47.8 °F /  8.8 °C 29.56in /  1000.9hPa East 6.0mph /  9.7km/h 15.0mph /  24.1km/h 24% 0.00in /  0mm 744.0 W/m2
16:26 89.4 °F /  31.9 °C 46.8 °F /  8.2 °C 29.56in /  1000.9hPa ESE 2.9mph /  4.7km/h 13.0mph /  20.9km/h 23% 0.00in /  0mm 752.0 W/m2
16:32 90.0 °F /  32.2 °C 47.1 °F /  8.4 °C 29.55in /  1000.6hPa Calm   6.0mph /  9.7km/h 23% 0.00in /  0mm 763.0 W/m2
16:38 90.0 °F /  32.2 °C 48.4 °F /  9.1 °C 29.55in /  1000.6hPa ESE 6.0mph /  9.7km/h 13.0mph /  20.9km/h 24% 0.00in /  0mm 742.0 W/m2
16:44 90.0 °F /  32.2 °C 48.4 °F /  9.1 °C 29.55in /  1000.6hPa SSE 8.9mph /  14.3km/h 16.0mph /  25.7km/h 24% 0.00in /  0mm 731.0 W/m2
16:50 89.8 °F /  32.1 °C 48.2 °F /  9 °C 29.55in /  1000.6hPa SSE 2.9mph /  4.7km/h 5.0mph /  8km/h 24% 0.00in /  0mm 680.0 W/m2
16:56 89.8 °F /  32.1 °C 48.2 °F /  9 °C 29.54in /  1000.2hPa ENE 0.9mph /  1.4km/h 7.0mph /  11.3km/h 24% 0.00in /  0mm 694.0 W/m2
17:02 89.8 °F /  32.1 °C 49.3 °F /  9.6 °C 29.55in /  1000.6hPa SSE 10.1mph /  16.3km/h 12.0mph /  19.3km/h 25% 0.00in /  0mm 701.0 W/m2
17:08 89.8 °F /  32.1 °C 48.2 °F /  9 °C 29.55in /  1000.6hPa SE 10.1mph /  16.3km/h 14.0mph /  22.5km/h 24% 0.00in /  0mm 621.0 W/m2
17:14 89.4 °F /  31.9 °C 46.8 °F /  8.2 °C 29.55in /  1000.6hPa ESE 2.9mph /  4.7km/h 12.0mph /  19.3km/h 23% 0.00in /  0mm 271.0 W/m2
17:20 88.7 °F /  31.5 °C 47.3 °F /  8.5 °C 29.54in /  1000.2hPa South 4.9mph /  7.9km/h 12.0mph /  19.3km/h 24% 0.00in /  0mm 545.0 W/m2
17:26 87.6 °F /  30.9 °C 46.4 °F /  8 °C 29.55in /  1000.6hPa SE 6.0mph /  9.7km/h 10.0mph /  16.1km/h 24% 0.00in /  0mm 519.0 W/m2
17:32 87.6 °F /  30.9 °C 47.5 °F /  8.6 °C 29.54in /  1000.2hPa SE 4.0mph /  6.4km/h 10.0mph /  16.1km/h 25% 0.00in /  0mm 510.0 W/m2
17:38 88.0 °F /  31.1 °C 48.7 °F /  9.3 °C 29.55in /  1000.6hPa SE 2.0mph /  3.2km/h 10.0mph /  16.1km/h 26% 0.00in /  0mm 111.0 W/m2
17:44 87.6 °F /  30.9 °C 47.5 °F /  8.6 °C 29.54in /  1000.2hPa ESE 2.0mph /  3.2km/h 6.0mph /  9.7km/h 25% 0.00in /  0mm 496.0 W/m2
17:50 88.0 °F /  31.1 °C 48.7 °F /  9.3 °C 29.55in /  1000.6hPa SW 4.0mph /  6.4km/h 5.0mph /  8km/h 26% 0.00in /  0mm 475.0 W/m2
17:56 88.7 °F /  31.5 °C 48.4 °F /  9.1 °C 29.55in /  1000.6hPa South 6.0mph /  9.7km/h 9.0mph /  14.5km/h 25% 0.00in /  0mm 427.0 W/m2
18:02 89.1 °F /  31.7 °C 48.7 °F /  9.3 °C 29.55in /  1000.6hPa SE 4.0mph /  6.4km/h 11.0mph /  17.7km/h 25% 0.00in /  0mm 381.0 W/m2
18:08 88.5 °F /  31.4 °C 49.3 °F /  9.6 °C 29.55in /  1000.6hPa SSE 8.1mph /  13km/h 12.0mph /  19.3km/h 26% 0.00in /  0mm 346.0 W/m2
18:14 88.2 °F /  31.2 °C 48.9 °F /  9.4 °C 29.55in /  1000.6hPa SSE 6.0mph /  9.7km/h 10.0mph /  16.1km/h 26% 0.00in /  0mm 304.0 W/m2
18:20 87.8 °F /  31 °C 48.6 °F /  9.2 °C 29.56in /  1000.9hPa East 8.1mph /  13km/h 10.0mph /  16.1km/h 26% 0.00in /  0mm 276.0 W/m2
18:26 87.6 °F /  30.9 °C 48.6 °F /  9.2 °C 29.55in /  1000.6hPa SE 8.9mph /  14.3km/h 13.0mph /  20.9km/h 26% 0.00in /  0mm 236.0 W/m2
18:32 87.1 °F /  30.6 °C 49.1 °F /  9.5 °C 29.55in /  1000.6hPa ESE 2.0mph /  3.2km/h 11.0mph /  17.7km/h 27% 0.00in /  0mm 211.0 W/m2
18:38 86.7 °F /  30.4 °C 48.7 °F /  9.3 °C 29.55in /  1000.6hPa SE 4.9mph /  7.9km/h 10.0mph /  16.1km/h 27% 0.00in /  0mm 190.0 W/m2
18:44 86.2 °F /  30.1 °C 48.2 °F /  9 °C 29.55in /  1000.6hPa ESE 6.0mph /  9.7km/h 8.0mph /  12.9km/h 27% 0.00in /  0mm 165.0 W/m2
18:50 85.6 °F /  29.8 °C 48.7 °F /  9.3 °C 29.56in /  1000.9hPa South 4.0mph /  6.4km/h 7.0mph /  11.3km/h 28% 0.00in /  0mm 60.0 W/m2
18:56 85.3 °F /  29.6 °C 48.6 °F /  9.2 °C 29.56in /  1000.9hPa SE 4.9mph /  7.9km/h 9.0mph /  14.5km/h 28% 0.00in /  0mm 33.0 W/m2
19:02 84.9 °F /  29.4 °C 47.1 °F /  8.4 °C 29.56in /  1000.9hPa SSE 2.0mph /  3.2km/h 8.0mph /  12.9km/h 27% 0.00in /  0mm 32.0 W/m2
19:08 84.6 °F /  29.2 °C 47.8 °F /  8.8 °C 29.57in /  1001.2hPa ESE 0.9mph /  1.4km/h 8.0mph /  12.9km/h 28% 0.00in /  0mm 26.0 W/m2
19:14 84.0 °F /  28.9 °C 47.5 °F /  8.6 °C 29.57in /  1001.2hPa South 4.0mph /  6.4km/h 11.0mph /  17.7km/h 28% 0.00in /  0mm 21.0 W/m2
19:20 83.7 °F /  28.7 °C 47.1 °F /  8.4 °C 29.57in /  1001.2hPa SSE 4.0mph /  6.4km/h 11.0mph /  17.7km/h 28% 0.00in /  0mm 16.0 W/m2
19:26 83.1 °F /  28.4 °C 46.6 °F /  8.1 °C 29.57in /  1001.2hPa Calm   6.0mph /  9.7km/h 28% 0.00in /  0mm 12.0 W/m2
19:32 82.8 °F /  28.2 °C 46.4 °F /  8 °C 29.58in /  1001.6hPa SE 4.0mph /  6.4km/h 9.0mph /  14.5km/h 28% 0.00in /  0mm 9.0 W/m2
19:38 82.6 °F /  28.1 °C 46.2 °F /  7.9 °C 29.58in /  1001.6hPa South 6.0mph /  9.7km/h 7.0mph /  11.3km/h 28% 0.00in /  0mm 5.0 W/m2
19:44 82.2 °F /  27.9 °C 45.9 °F /  7.7 °C 29.58in /  1001.6hPa SE 2.9mph /  4.7km/h 5.0mph /  8km/h 28% 0.00in /  0mm 0.0 W/m2
19:51 81.9 °F /  27.7 °C 45.5 °F /  7.5 °C 29.59in /  1001.9hPa SE 2.0mph /  3.2km/h 7.0mph /  11.3km/h 28% 0.00in /  0mm 0.0 W/m2
19:56 81.7 °F /  27.6 °C 45.3 °F /  7.4 °C 29.59in /  1001.9hPa SSE 4.0mph /  6.4km/h 6.0mph /  9.7km/h 28% 0.00in /  0mm 0.0 W/m2
20:03 81.3 °F /  27.4 °C 45.1 °F /  7.3 °C 29.59in /  1001.9hPa SE 4.0mph /  6.4km/h 5.0mph /  8km/h 28% 0.00in /  0mm 0.0 W/m2
20:09 81.1 °F /  27.3 °C 45.0 °F /  7.2 °C 29.60in /  1002.3hPa East 2.9mph /  4.7km/h 4.0mph /  6.4km/h 28% 0.00in /  0mm 0.0 W/m2
20:15 80.8 °F /  27.1 °C 45.5 °F /  7.5 °C 29.60in /  1002.3hPa SE 4.9mph /  7.9km/h 6.0mph /  9.7km/h 29% 0.00in /  0mm 0.0 W/m2
20:21 80.6 °F /  27 °C 44.4 °F /  6.9 °C 29.60in /  1002.3hPa SE 4.0mph /  6.4km/h 7.0mph /  11.3km/h 28% 0.00in /  0mm 0.0 W/m2
20:27 80.4 °F /  26.9 °C 44.2 °F /  6.8 °C 29.60in /  1002.3hPa ESE 4.9mph /  7.9km/h 11.0mph /  17.7km/h 28% 0.00in /  0mm 0.0 W/m2
20:33 80.2 °F /  26.8 °C 44.2 °F /  6.8 °C 29.60in /  1002.3hPa SE 2.0mph /  3.2km/h 4.0mph /  6.4km/h 28% 0.00in /  0mm 0.0 W/m2
20:39 80.1 °F /  26.7 °C 44.1 °F /  6.7 °C 29.60in /  1002.3hPa SSE 4.0mph /  6.4km/h 6.0mph /  9.7km/h 28% 0.00in /  0mm 0.0 W/m2
20:45 79.9 °F /  26.6 °C 44.8 °F /  7.1 °C 29.60in /  1002.3hPa SE 0.9mph /  1.4km/h 5.0mph /  8km/h 29% 0.00in /  0mm 0.0 W/m2
20:51 79.5 °F /  26.4 °C 44.4 °F /  6.9 °C 29.60in /  1002.3hPa SE 0.9mph /  1.4km/h 2.0mph /  3.2km/h 29% 0.00in /  0mm 0.0 W/m2
20:57 79.3 °F /  26.3 °C 45.1 °F /  7.3 °C 29.60in /  1002.3hPa SSE 2.0mph /  3.2km/h 4.0mph /  6.4km/h 30% 0.00in /  0mm 0.0 W/m2
21:03 79.2 °F /  26.2 °C 45.1 °F /  7.3 °C 29.60in /  1002.3hPa Calm   3.0mph /  4.8km/h 30% 0.00in /  0mm 0.0 W/m2
21:09 79.0 °F /  26.1 °C 45.7 °F /  7.6 °C 29.61in /  1002.6hPa ESE 0.9mph /  1.4km/h 6.0mph /  9.7km/h 31% 0.00in /  0mm 0.0 W/m2
21:15 78.6 °F /  25.9 °C 46.2 °F /  7.9 °C 29.61in /  1002.6hPa SE 0.9mph /  1.4km/h 4.0mph /  6.4km/h 32% 0.00in /  0mm 0.0 W/m2
21:21 78.4 °F /  25.8 °C 46.2 °F /  7.9 °C 29.61in /  1002.6hPa Calm   5.0mph /  8km/h 32% 0.00in /  0mm 0.0 W/m2
21:27 78.3 °F /  25.7 °C 46.0 °F /  7.8 °C 29.61in /  1002.6hPa Calm   2.0mph /  3.2km/h 32% 0.00in /  0mm 0.0 W/m2
21:33 78.1 °F /  25.6 °C 45.9 °F /  7.7 °C 29.61in /  1002.6hPa Calm   5.0mph /  8km/h 32% 0.00in /  0mm 0.0 W/m2
21:39 77.7 °F /  25.4 °C 45.5 °F /  7.5 °C 29.61in /  1002.6hPa SE 4.0mph /  6.4km/h 6.0mph /  9.7km/h 32% 0.00in /  0mm 0.0 W/m2
21:45 77.5 °F /  25.3 °C 46.2 °F /  7.9 °C 29.61in /  1002.6hPa SSE 4.9mph /  7.9km/h 6.0mph /  9.7km/h 33% 0.00in /  0mm 0.0 W/m2
21:51 77.4 °F /  25.2 °C 46.8 °F /  8.2 °C 29.61in /  1002.6hPa Calm   3.0mph /  4.8km/h 34% 0.00in /  0mm 0.0 W/m2
21:57 77.2 °F /  25.1 °C 46.6 °F /  8.1 °C 29.61in /  1002.6hPa SE 2.0mph /  3.2km/h 3.0mph /  4.8km/h 34% 0.00in /  0mm 0.0 W/m2
22:03 76.8 °F /  24.9 °C 46.4 °F /  8 °C 29.62in /  1002.9hPa Calm   6.0mph /  9.7km/h 34% 0.00in /  0mm 0.0 W/m2
22:09 76.6 °F /  24.8 °C 46.9 °F /  8.3 °C 29.62in /  1002.9hPa SE 2.0mph /  3.2km/h 4.0mph /  6.4km/h 35% 0.00in /  0mm 0.0 W/m2
22:15 76.3 °F /  24.6 °C 46.6 °F /  8.1 °C 29.62in /  1002.9hPa Calm   3.0mph /  4.8km/h 35% 0.00in /  0mm 0.0 W/m2
22:21 75.9 °F /  24.4 °C 46.2 °F /  7.9 °C 29.62in /  1002.9hPa Calm   4.0mph /  6.4km/h 35% 0.00in /  0mm 0.0 W/m2
22:27 75.7 °F /  24.3 °C 46.2 °F /  7.9 °C 29.62in /  1002.9hPa Calm   2.0mph /  3.2km/h 35% 0.00in /  0mm 0.0 W/m2
22:33 75.6 °F /  24.2 °C 46.0 °F /  7.8 °C 29.62in /  1002.9hPa SSE 0.9mph /  1.4km/h 4.0mph /  6.4km/h 35% 0.00in /  0mm 0.0 W/m2
22:39 75.6 °F /  24.2 °C 46.0 °F /  7.8 °C 29.63in /  1003.3hPa SSE 0.9mph /  1.4km/h 3.0mph /  4.8km/h 35% 0.00in /  0mm 0.0 W/m2
22:45 75.7 °F /  24.3 °C 46.9 °F /  8.3 °C 29.63in /  1003.3hPa South 0.9mph /  1.4km/h 2.0mph /  3.2km/h 36% 0.00in /  0mm 0.0 W/m2
22:51 75.7 °F /  24.3 °C 45.3 °F /  7.4 °C 29.63in /  1003.3hPa ESE 2.0mph /  3.2km/h 5.0mph /  8km/h 34% 0.00in /  0mm 0.0 W/m2
22:57 75.9 °F /  24.4 °C 45.5 °F /  7.5 °C 29.63in /  1003.3hPa ESE 2.9mph /  4.7km/h 3.0mph /  4.8km/h 34% 0.00in /  0mm 0.0 W/m2
23:03 76.3 °F /  24.6 °C 45.9 °F /  7.7 °C 29.63in /  1003.3hPa SE 2.9mph /  4.7km/h 4.0mph /  6.4km/h 34% 0.00in /  0mm 0.0 W/m2
23:09 76.5 °F /  24.7 °C 46.0 °F /  7.8 °C 29.62in /  1002.9hPa East 0.9mph /  1.4km/h 6.0mph /  9.7km/h 34% 0.00in /  0mm 0.0 W/m2
23:15 76.5 °F /  24.7 °C 46.0 °F /  7.8 °C 29.62in /  1002.9hPa SE 2.0mph /  3.2km/h 4.0mph /  6.4km/h 34% 0.00in /  0mm 0.0 W/m2
23:21 76.5 °F /  24.7 °C 46.0 °F /  7.8 °C 29.63in /  1003.3hPa SE 2.9mph /  4.7km/h 3.0mph /  4.8km/h 34% 0.00in /  0mm 0.0 W/m2
23:27 76.3 °F /  24.6 °C 45.9 °F /  7.7 °C 29.63in /  1003.3hPa SE 4.0mph /  6.4km/h 4.0mph /  6.4km/h 34% 0.00in /  0mm 0.0 W/m2
23:34 76.3 °F /  24.6 °C 45.9 °F /  7.7 °C 29.62in /  1002.9hPa SE 2.0mph /  3.2km/h 6.0mph /  9.7km/h 34% 0.00in /  0mm 0.0 W/m2
23:40 76.3 °F /  24.6 °C 45.9 °F /  7.7 °C 29.62in /  1002.9hPa SE 2.0mph /  3.2km/h 4.0mph /  6.4km/h 34% 0.00in /  0mm 0.0 W/m2
23:46 75.9 °F /  24.4 °C 47.1 °F /  8.4 °C 29.62in /  1002.9hPa Calm   1.0mph /  1.6km/h 36% 0.00in /  0mm 0.0 W/m2
23:52 75.6 °F /  24.2 °C 46.8 °F /  8.2 °C 29.62in /  1002.9hPa ESE 0.9mph /  1.4km/h 2.0mph /  3.2km/h 36% 0.00in /  0mm 0.0 W/m2
23:56 75.2 °F /  24 °C 47.8 °F /  8.8 °C 29.62in /  1002.9hPa Calm   1.0mph /  1.6km/h 38% 0.00in /  0mm 0.0 W/m2
Olympia, Windhoek, Namibia
Compliments of Weather Underground - 3 mb